sensor_id;sensor_type;location;lat;lon;timestamp;pressure;altitude;pressure_sealevel;temperature;humidity
70009;BME280;59542;37.950;-122.338;2022-07-01T00:00:17;101470.34;;;18.80;53.63
70009;BME280;59542;37.950;-122.338;2022-07-01T00:02:43;101460.31;;;18.81;53.51
70009;BME280;59542;37.950;-122.338;2022-07-01T00:05:09;101475.38;;;18.60;53.82
70009;BME280;59542;37.950;-122.338;2022-07-01T00:07:36;101469.00;;;18.66;53.91
70009;BME280;59542;37.950;-122.338;2022-07-01T00:10:03;101480.19;;;18.69;54.58
70009;BME280;59542;37.950;-122.338;2022-07-01T00:12:30;101467.03;;;18.61;53.93
70009;BME280;59542;37.950;-122.338;2022-07-01T00:14:56;101463.72;;;18.59;54.57
70009;BME280;59542;37.950;-122.338;2022-07-01T00:17:22;101464.88;;;18.63;54.79
70009;BME280;59542;37.950;-122.338;2022-07-01T00:19:49;101471.41;;;18.79;54.29
70009;BME280;59542;37.950;-122.338;2022-07-01T00:22:16;101465.19;;;18.95;53.42
70009;BME280;59542;37.950;-122.338;2022-07-01T00:24:42;101474.56;;;18.88;53.24
70009;BME280;59542;37.950;-122.338;2022-07-01T00:27:11;101460.56;;;18.79;53.52
70009;BME280;59542;37.950;-122.338;2022-07-01T00:29:39;101456.06;;;18.85;53.14
70009;BME280;59542;37.950;-122.338;2022-07-01T00:32:05;101453.00;;;18.81;53.92
70009;BME280;59542;37.950;-122.338;2022-07-01T00:34:31;101453.50;;;18.78;53.91
70009;BME280;59542;37.950;-122.338;2022-07-01T00:36:58;101450.38;;;18.69;54.27
70009;BME280;59542;37.950;-122.338;2022-07-01T00:39:25;101442.88;;;18.77;53.55
70009;BME280;59542;37.950;-122.338;2022-07-01T00:41:51;101438.56;;;18.47;54.12
70009;BME280;59542;37.950;-122.338;2022-07-01T00:44:18;101449.31;;;18.42;54.58
70009;BME280;59542;37.950;-122.338;2022-07-01T00:46:46;101446.41;;;18.32;55.01
70009;BME280;59542;37.950;-122.338;2022-07-01T00:49:15;101439.25;;;17.97;56.02
70009;BME280;59542;37.950;-122.338;2022-07-01T00:51:43;101443.38;;;18.00;55.95
70009;BME280;59542;37.950;-122.338;2022-07-01T00:54:10;101442.06;;;18.02;56.19
70009;BME280;59542;37.950;-122.338;2022-07-01T00:56:36;101435.34;;;17.93;56.27
70009;BME280;59542;37.950;-122.338;2022-07-01T00:59:03;101431.72;;;17.87;56.59
70009;BME280;59542;37.950;-122.338;2022-07-01T01:01:29;101433.97;;;17.90;56.74
70009;BME280;59542;37.950;-122.338;2022-07-01T01:03:55;101437.38;;;17.86;56.45
70009;BME280;59542;37.950;-122.338;2022-07-01T01:06:22;101430.94;;;17.75;57.18
70009;BME280;59542;37.950;-122.338;2022-07-01T01:08:49;101424.47;;;17.76;57.13
70009;BME280;59542;37.950;-122.338;2022-07-01T01:11:16;101426.63;;;17.39;58.15
70009;BME280;59542;37.950;-122.338;2022-07-01T01:13:43;101419.69;;;17.20;58.76
70009;BME280;59542;37.950;-122.338;2022-07-01T01:16:21;101426.75;;;17.09;59.53
70009;BME280;59542;37.950;-122.338;2022-07-01T01:18:48;101423.78;;;16.87;60.02
70009;BME280;59542;37.950;-122.338;2022-07-01T01:21:15;101420.97;;;16.82;60.68
70009;BME280;59542;37.950;-122.338;2022-07-01T01:23:42;101417.22;;;16.83;60.79
70009;BME280;59542;37.950;-122.338;2022-07-01T01:26:16;101420.25;;;16.98;60.05
70009;BME280;59542;37.950;-122.338;2022-07-01T01:28:42;101418.72;;;16.79;60.35
70009;BME280;59542;37.950;-122.338;2022-07-01T01:31:08;101412.75;;;16.77;60.93
70009;BME280;59542;37.950;-122.338;2022-07-01T01:33:34;101408.38;;;16.76;60.81
70009;BME280;59542;37.950;-122.338;2022-07-01T01:36:01;101413.22;;;16.85;61.08
70009;BME280;59542;37.950;-122.338;2022-07-01T01:38:27;101418.16;;;16.77;60.70
70009;BME280;59542;37.950;-122.338;2022-07-01T01:40:53;101413.13;;;16.50;61.85
70009;BME280;59542;37.950;-122.338;2022-07-01T01:43:21;101409.38;;;16.51;61.66
70009;BME280;59542;37.950;-122.338;2022-07-01T01:45:47;101414.91;;;16.68;61.40
70009;BME280;59542;37.950;-122.338;2022-07-01T01:48:13;101417.09;;;16.48;61.58
70009;BME280;59542;37.950;-122.338;2022-07-01T01:50:39;101422.28;;;16.49;61.86
70009;BME280;59542;37.950;-122.338;2022-07-01T01:53:05;101434.53;;;16.63;62.02
70009;BME280;59542;37.950;-122.338;2022-07-01T01:55:32;101432.97;;;16.44;62.31
70009;BME280;59542;37.950;-122.338;2022-07-01T01:57:58;101435.66;;;16.44;62.22
70009;BME280;59542;37.950;-122.338;2022-07-01T02:00:24;101435.00;;;16.60;62.14
70009;BME280;59542;37.950;-122.338;2022-07-01T02:02:50;101429.94;;;16.64;61.78
70009;BME280;59542;37.950;-122.338;2022-07-01T02:05:17;101421.38;;;16.55;61.77
70009;BME280;59542;37.950;-122.338;2022-07-01T02:07:44;101427.59;;;16.56;62.26
70009;BME280;59542;37.950;-122.338;2022-07-01T02:10:10;101427.25;;;16.64;62.11
70009;BME280;59542;37.950;-122.338;2022-07-01T02:12:37;101414.50;;;16.71;61.70
70009;BME280;59542;37.950;-122.338;2022-07-01T02:15:03;101424.09;;;16.67;61.62
70009;BME280;59542;37.950;-122.338;2022-07-01T02:17:29;101424.06;;;16.55;61.75
70009;BME280;59542;37.950;-122.338;2022-07-01T02:19:56;101423.94;;;16.50;62.13
70009;BME280;59542;37.950;-122.338;2022-07-01T02:22:22;101428.41;;;16.26;62.90
70009;BME280;59542;37.950;-122.338;2022-07-01T02:24:48;101435.41;;;16.34;63.03
70009;BME280;59542;37.950;-122.338;2022-07-01T02:27:14;101427.19;;;16.41;62.60
70009;BME280;59542;37.950;-122.338;2022-07-01T02:29:40;101429.91;;;16.41;62.67
70009;BME280;59542;37.950;-122.338;2022-07-01T02:32:07;101429.38;;;16.32;63.34
70009;BME280;59542;37.950;-122.338;2022-07-01T02:34:34;101426.38;;;16.40;62.83
70009;BME280;59542;37.950;-122.338;2022-07-01T02:37:00;101435.22;;;16.17;63.21
70009;BME280;59542;37.950;-122.338;2022-07-01T02:39:26;101430.94;;;16.40;63.06
70009;BME280;59542;37.950;-122.338;2022-07-01T02:41:53;101438.13;;;16.46;62.48
70009;BME280;59542;37.950;-122.338;2022-07-01T02:44:40;101435.13;;;16.66;61.68
70009;BME280;59542;37.950;-122.338;2022-07-01T02:47:06;101436.84;;;16.48;62.10
70009;BME280;59542;37.950;-122.338;2022-07-01T02:49:33;101434.56;;;16.33;62.82
70009;BME280;59542;37.950;-122.338;2022-07-01T02:51:59;101430.44;;;16.31;62.67
70009;BME280;59542;37.950;-122.338;2022-07-01T02:54:25;101427.16;;;16.29;62.72
70009;BME280;59542;37.950;-122.338;2022-07-01T02:56:51;101428.69;;;16.36;62.74
70009;BME280;59542;37.950;-122.338;2022-07-01T02:59:17;101430.16;;;16.21;62.67
70009;BME280;59542;37.950;-122.338;2022-07-01T03:01:43;101413.50;;;16.24;62.72
70009;BME280;59542;37.950;-122.338;2022-07-01T03:04:10;101415.78;;;16.08;63.18
70009;BME280;59542;37.950;-122.338;2022-07-01T03:06:36;101421.38;;;15.95;63.39
70009;BME280;59542;37.950;-122.338;2022-07-01T03:09:02;101420.44;;;15.71;64.56
70009;BME280;59542;37.950;-122.338;2022-07-01T03:11:28;101421.00;;;15.55;65.26
70009;BME280;59542;37.950;-122.338;2022-07-01T03:13:55;101427.78;;;15.21;66.69
70009;BME280;59542;37.950;-122.338;2022-07-01T03:16:21;101430.03;;;15.24;66.35
70009;BME280;59542;37.950;-122.338;2022-07-01T03:18:47;101436.16;;;15.13;66.84
70009;BME280;59542;37.950;-122.338;2022-07-01T03:21:14;101438.03;;;14.87;68.09
70009;BME280;59542;37.950;-122.338;2022-07-01T03:23:40;101436.16;;;14.88;68.46
70009;BME280;59542;37.950;-122.338;2022-07-01T03:26:06;101429.22;;;14.73;69.01
70009;BME280;59542;37.950;-122.338;2022-07-01T03:28:32;101435.56;;;14.54;69.50
70009;BME280;59542;37.950;-122.338;2022-07-01T03:31:00;101444.38;;;14.36;70.10
70009;BME280;59542;37.950;-122.338;2022-07-01T03:33:27;101445.81;;;14.39;70.04
70009;BME280;59542;37.950;-122.338;2022-07-01T03:35:54;101429.53;;;14.27;70.36
70009;BME280;59542;37.950;-122.338;2022-07-01T03:38:20;101439.56;;;14.07;71.29
70009;BME280;59542;37.950;-122.338;2022-07-01T03:40:46;101425.47;;;14.05;71.47
70009;BME280;59542;37.950;-122.338;2022-07-01T03:43:12;101428.81;;;14.00;71.79
70009;BME280;59542;37.950;-122.338;2022-07-01T03:45:38;101428.50;;;13.83;72.58
70009;BME280;59542;37.950;-122.338;2022-07-01T03:48:05;101430.13;;;13.84;72.58
70009;BME280;59542;37.950;-122.338;2022-07-01T03:50:31;101433.19;;;13.88;72.50
70009;BME280;59542;37.950;-122.338;2022-07-01T03:52:58;101419.19;;;13.79;72.80
70009;BME280;59542;37.950;-122.338;2022-07-01T03:55:42;101423.56;;;13.67;73.58
70009;BME280;59542;37.950;-122.338;2022-07-01T03:58:09;101426.25;;;13.67;74.03
70009;BME280;59542;37.950;-122.338;2022-07-01T04:00:36;101431.88;;;13.59;74.35
70009;BME280;59542;37.950;-122.338;2022-07-01T04:03:04;101432.69;;;13.66;74.08
70009;BME280;59542;37.950;-122.338;2022-07-01T04:05:33;101421.94;;;13.66;74.06
70009;BME280;59542;37.950;-122.338;2022-07-01T04:08:01;101438.03;;;13.72;73.95
70009;BME280;59542;37.950;-122.338;2022-07-01T04:10:30;101438.44;;;13.69;74.15
70009;BME280;59542;37.950;-122.338;2022-07-01T04:12:59;101430.59;;;13.68;74.16
70009;BME280;59542;37.950;-122.338;2022-07-01T04:15:26;101427.25;;;13.79;73.76
70009;BME280;59542;37.950;-122.338;2022-07-01T04:17:52;101423.56;;;13.73;73.96
70009;BME280;59542;37.950;-122.338;2022-07-01T04:20:19;101432.22;;;13.76;73.67
70009;BME280;59542;37.950;-122.338;2022-07-01T04:22:45;101426.03;;;13.68;73.35
70009;BME280;59542;37.950;-122.338;2022-07-01T04:25:12;101432.47;;;13.67;73.88
70009;BME280;59542;37.950;-122.338;2022-07-01T04:27:38;101425.44;;;13.60;74.35
70009;BME280;59542;37.950;-122.338;2022-07-01T04:30:05;101424.44;;;13.61;74.08
70009;BME280;59542;37.950;-122.338;2022-07-01T04:32:32;101431.88;;;13.59;74.42
70009;BME280;59542;37.950;-122.338;2022-07-01T04:34:58;101434.38;;;13.60;74.22
70009;BME280;59542;37.950;-122.338;2022-07-01T04:37:24;101436.00;;;13.61;73.86
70009;BME280;59542;37.950;-122.338;2022-07-01T04:39:50;101437.47;;;13.51;74.09
70009;BME280;59542;37.950;-122.338;2022-07-01T04:42:16;101436.47;;;13.45;73.87
70009;BME280;59542;37.950;-122.338;2022-07-01T04:44:46;101433.78;;;13.45;74.38
70009;BME280;59542;37.950;-122.338;2022-07-01T04:47:12;101431.47;;;13.48;74.33
70009;BME280;59542;37.950;-122.338;2022-07-01T04:49:38;101444.50;;;13.52;74.21
70009;BME280;59542;37.950;-122.338;2022-07-01T04:52:04;101446.19;;;13.39;74.67
70009;BME280;59542;37.950;-122.338;2022-07-01T04:54:31;101434.00;;;13.30;74.68
70009;BME280;59542;37.950;-122.338;2022-07-01T04:56:57;101439.38;;;13.30;74.79
70009;BME280;59542;37.950;-122.338;2022-07-01T04:59:23;101440.63;;;13.34;75.03
70009;BME280;59542;37.950;-122.338;2022-07-01T05:01:49;101447.22;;;13.32;74.83
70009;BME280;59542;37.950;-122.338;2022-07-01T05:04:17;101457.97;;;13.18;75.59
70009;BME280;59542;37.950;-122.338;2022-07-01T05:06:43;101462.97;;;13.28;75.46
70009;BME280;59542;37.950;-122.338;2022-07-01T05:09:10;101459.44;;;13.34;74.95
70009;BME280;59542;37.950;-122.338;2022-07-01T05:11:36;101464.84;;;13.28;75.15
70009;BME280;59542;37.950;-122.338;2022-07-01T05:14:05;101465.81;;;13.20;75.36
70009;BME280;59542;37.950;-122.338;2022-07-01T05:16:32;101470.00;;;13.23;75.31
70009;BME280;59542;37.950;-122.338;2022-07-01T05:18:59;101476.19;;;13.16;75.51
70009;BME280;59542;37.950;-122.338;2022-07-01T05:21:43;101478.03;;;13.16;75.29
70009;BME280;59542;37.950;-122.338;2022-07-01T05:24:22;101473.47;;;13.10;74.81
70009;BME280;59542;37.950;-122.338;2022-07-01T05:26:49;101468.53;;;13.00;75.65
70009;BME280;59542;37.950;-122.338;2022-07-01T05:29:15;101477.81;;;13.04;75.90
70009;BME280;59542;37.950;-122.338;2022-07-01T05:31:42;101482.56;;;13.09;75.95
70009;BME280;59542;37.950;-122.338;2022-07-01T05:34:08;101478.03;;;13.09;75.71
70009;BME280;59542;37.950;-122.338;2022-07-01T05:36:34;101480.50;;;12.98;76.07
70009;BME280;59542;37.950;-122.338;2022-07-01T05:39:01;101495.19;;;13.02;75.90
70009;BME280;59542;37.950;-122.338;2022-07-01T05:41:27;101486.50;;;12.93;77.13
70009;BME280;59542;37.950;-122.338;2022-07-01T05:43:54;101482.38;;;12.97;77.30
70009;BME280;59542;37.950;-122.338;2022-07-01T05:46:20;101481.75;;;12.88;77.25
70009;BME280;59542;37.950;-122.338;2022-07-01T05:48:46;101491.47;;;12.89;76.91
70009;BME280;59542;37.950;-122.338;2022-07-01T05:51:13;101482.78;;;12.94;76.74
70009;BME280;59542;37.950;-122.338;2022-07-01T05:53:39;101487.31;;;12.87;76.22
70009;BME280;59542;37.950;-122.338;2022-07-01T05:56:05;101480.91;;;12.88;76.20
70009;BME280;59542;37.950;-122.338;2022-07-01T05:58:31;101482.16;;;12.92;76.86
70009;BME280;59542;37.950;-122.338;2022-07-01T06:00:58;101484.00;;;12.91;77.01
70009;BME280;59542;37.950;-122.338;2022-07-01T06:03:24;101473.06;;;12.93;76.85
70009;BME280;59542;37.950;-122.338;2022-07-01T06:05:51;101483.59;;;12.88;77.09
70009;BME280;59542;37.950;-122.338;2022-07-01T06:08:17;101474.91;;;12.92;77.11
70009;BME280;59542;37.950;-122.338;2022-07-01T06:10:43;101466.03;;;12.85;77.27
70009;BME280;59542;37.950;-122.338;2022-07-01T06:13:10;101475.34;;;12.83;77.05
70009;BME280;59542;37.950;-122.338;2022-07-01T06:15:36;101479.88;;;12.82;77.25
70009;BME280;59542;37.950;-122.338;2022-07-01T06:18:02;101477.00;;;12.77;77.27
70009;BME280;59542;37.950;-122.338;2022-07-01T06:20:29;101477.19;;;12.82;77.32
70009;BME280;59542;37.950;-122.338;2022-07-01T06:22:55;101481.31;;;12.78;77.21
70009;BME280;59542;37.950;-122.338;2022-07-01T06:25:23;101490.44;;;12.77;77.68
70009;BME280;59542;37.950;-122.338;2022-07-01T06:27:49;101492.91;;;12.72;77.71
70009;BME280;59542;37.950;-122.338;2022-07-01T06:30:16;101487.31;;;12.74;77.76
70009;BME280;59542;37.950;-122.338;2022-07-01T06:32:42;101490.22;;;12.72;78.16
70009;BME280;59542;37.950;-122.338;2022-07-01T06:35:09;101482.75;;;12.67;77.87
70009;BME280;59542;37.950;-122.338;2022-07-01T06:37:35;101471.41;;;12.72;78.21
70009;BME280;59542;37.950;-122.338;2022-07-01T06:40:03;101472.00;;;12.61;78.44
70009;BME280;59542;37.950;-122.338;2022-07-01T06:42:31;101470.97;;;12.62;78.25
70009;BME280;59542;37.950;-122.338;2022-07-01T06:44:58;101471.34;;;12.52;78.75
70009;BME280;59542;37.950;-122.338;2022-07-01T06:47:24;101473.22;;;12.58;78.55
70009;BME280;59542;37.950;-122.338;2022-07-01T06:49:51;101456.28;;;12.58;78.50
70009;BME280;59542;37.950;-122.338;2022-07-01T06:52:17;101473.66;;;12.55;78.83
70009;BME280;59542;37.950;-122.338;2022-07-01T06:54:43;101464.94;;;12.53;78.69
70009;BME280;59542;37.950;-122.338;2022-07-01T06:57:09;101465.53;;;12.42;79.11
70009;BME280;59542;37.950;-122.338;2022-07-01T06:59:36;101470.09;;;12.41;79.31
70009;BME280;59542;37.950;-122.338;2022-07-01T07:02:02;101467.41;;;12.41;79.62
70009;BME280;59542;37.950;-122.338;2022-07-01T07:04:31;101461.66;;;12.45;79.54
70009;BME280;59542;37.950;-122.338;2022-07-01T07:06:57;101464.34;;;12.51;79.65
70009;BME280;59542;37.950;-122.338;2022-07-01T07:09:24;101467.00;;;12.45;80.04
70009;BME280;59542;37.950;-122.338;2022-07-01T07:11:50;101468.47;;;12.54;79.42
70009;BME280;59542;37.950;-122.338;2022-07-01T07:14:16;101450.72;;;12.59;78.87
70009;BME280;59542;37.950;-122.338;2022-07-01T07:16:42;101471.34;;;12.52;78.87
70009;BME280;59542;37.950;-122.338;2022-07-01T07:19:09;101466.59;;;12.48;79.22
70009;BME280;59542;37.950;-122.338;2022-07-01T07:21:36;101462.88;;;12.49;78.83
70009;BME280;59542;37.950;-122.338;2022-07-01T07:24:03;101482.94;;;12.53;79.30
70009;BME280;59542;37.950;-122.338;2022-07-01T07:26:29;101472.19;;;12.53;79.79
70009;BME280;59542;37.950;-122.338;2022-07-01T07:28:55;101470.09;;;12.48;79.45
70009;BME280;59542;37.950;-122.338;2022-07-01T07:31:22;101470.91;;;12.42;79.98
70009;BME280;59542;37.950;-122.338;2022-07-01T07:33:48;101469.72;;;12.51;80.23
70009;BME280;59542;37.950;-122.338;2022-07-01T07:36:14;101458.97;;;12.45;79.88
70009;BME280;59542;37.950;-122.338;2022-07-01T07:38:40;101457.09;;;12.52;79.23
70009;BME280;59542;37.950;-122.338;2022-07-01T07:41:07;101457.09;;;12.45;79.56
70009;BME280;59542;37.950;-122.338;2022-07-01T07:43:33;101459.19;;;12.50;79.50
70009;BME280;59542;37.950;-122.338;2022-07-01T07:45:59;101463.28;;;12.46;79.61
70009;BME280;59542;37.950;-122.338;2022-07-01T07:48:25;101461.59;;;12.31;79.74
70009;BME280;59542;37.950;-122.338;2022-07-01T07:50:52;101453.97;;;12.35;80.54
70009;BME280;59542;37.950;-122.338;2022-07-01T07:53:18;101457.69;;;12.34;80.10
70009;BME280;59542;37.950;-122.338;2022-07-01T07:55:44;101456.66;;;12.35;80.06
70009;BME280;59542;37.950;-122.338;2022-07-01T07:58:10;101467.16;;;12.30;79.98
70009;BME280;59542;37.950;-122.338;2022-07-01T08:00:36;101467.94;;;12.10;81.04
70009;BME280;59542;37.950;-122.338;2022-07-01T08:03:03;101464.69;;;12.22;80.91
70009;BME280;59542;37.950;-122.338;2022-07-01T08:05:29;101461.59;;;12.31;80.88
70009;BME280;59542;37.950;-122.338;2022-07-01T08:07:56;101458.72;;;12.33;81.15
70009;BME280;59542;37.950;-122.338;2022-07-01T08:10:22;101460.38;;;12.27;80.98
70009;BME280;59542;37.950;-122.338;2022-07-01T08:12:48;101459.50;;;12.20;81.48
70009;BME280;59542;37.950;-122.338;2022-07-01T08:15:14;101464.06;;;12.26;81.34
70009;BME280;59542;37.950;-122.338;2022-07-01T08:17:41;101459.72;;;12.25;80.81
70009;BME280;59542;37.950;-122.338;2022-07-01T08:20:07;101462.78;;;12.15;80.88
70009;BME280;59542;37.950;-122.338;2022-07-01T08:22:34;101464.41;;;12.10;80.93
70009;BME280;59542;37.950;-122.338;2022-07-01T08:25:00;101460.94;;;12.16;81.21
70009;BME280;59542;37.950;-122.338;2022-07-01T08:27:28;101469.63;;;12.18;80.88
70009;BME280;59542;37.950;-122.338;2022-07-01T08:29:54;101466.25;;;12.09;81.12
70009;BME280;59542;37.950;-122.338;2022-07-01T08:32:20;101469.19;;;12.14;80.82
70009;BME280;59542;37.950;-122.338;2022-07-01T08:34:47;101468.34;;;12.07;81.23
70009;BME280;59542;37.950;-122.338;2022-07-01T08:37:14;101460.50;;;12.12;80.92
70009;BME280;59542;37.950;-122.338;2022-07-01T08:39:40;101460.31;;;12.21;80.89
70009;BME280;59542;37.950;-122.338;2022-07-01T08:42:07;101463.88;;;12.28;80.71
70009;BME280;59542;37.950;-122.338;2022-07-01T08:44:33;101468.38;;;12.21;80.82
70009;BME280;59542;37.950;-122.338;2022-07-01T08:47:00;101467.38;;;12.28;80.22
70009;BME280;59542;37.950;-122.338;2022-07-01T08:49:26;101473.97;;;12.32;80.30
70009;BME280;59542;37.950;-122.338;2022-07-01T08:51:52;101469.25;;;12.28;80.45
70009;BME280;59542;37.950;-122.338;2022-07-01T08:54:18;101463.25;;;12.32;80.32
70009;BME280;59542;37.950;-122.338;2022-07-01T08:56:45;101463.22;;;12.26;80.17
70009;BME280;59542;37.950;-122.338;2022-07-01T08:59:24;101459.50;;;12.27;79.86
70009;BME280;59542;37.950;-122.338;2022-07-01T09:02:02;101450.63;;;12.20;80.62
70009;BME280;59542;37.950;-122.338;2022-07-01T09:04:33;101462.19;;;12.20;80.58
70009;BME280;59542;37.950;-122.338;2022-07-01T09:07:06;101449.63;;;12.27;80.46
70009;BME280;59542;37.950;-122.338;2022-07-01T09:09:39;101449.78;;;12.19;80.70
70009;BME280;59542;37.950;-122.338;2022-07-01T09:12:08;101447.53;;;12.23;80.63
70009;BME280;59542;37.950;-122.338;2022-07-01T09:14:35;101447.94;;;12.20;80.41
70009;BME280;59542;37.950;-122.338;2022-07-01T09:17:04;101440.47;;;12.15;80.80
70009;BME280;59542;37.950;-122.338;2022-07-01T09:19:39;101452.03;;;12.09;80.62
70009;BME280;59542;37.950;-122.338;2022-07-01T09:22:06;101440.84;;;11.99;81.00
70009;BME280;59542;37.950;-122.338;2022-07-01T09:24:38;101441.06;;;12.04;81.01
70009;BME280;59542;37.950;-122.338;2022-07-01T09:27:10;101443.97;;;12.09;81.29
70009;BME280;59542;37.950;-122.338;2022-07-01T09:29:40;101450.00;;;12.11;81.12
70009;BME280;59542;37.950;-122.338;2022-07-01T09:32:08;101440.25;;;12.03;81.14
70009;BME280;59542;37.950;-122.338;2022-07-01T09:34:42;101447.81;;;11.86;81.86
70009;BME280;59542;37.950;-122.338;2022-07-01T09:37:12;101435.88;;;11.96;81.75
70009;BME280;59542;37.950;-122.338;2022-07-01T09:39:57;101435.47;;;11.99;81.96
70009;BME280;59542;37.950;-122.338;2022-07-01T09:42:26;101441.25;;;11.96;81.70
70009;BME280;59542;37.950;-122.338;2022-07-01T09:47:24;101436.69;;;11.89;81.69
70009;BME280;59542;37.950;-122.338;2022-07-01T09:49:51;101442.66;;;11.85;81.48
70009;BME280;59542;37.950;-122.338;2022-07-01T09:52:18;101433.81;;;11.91;81.57
70009;BME280;59542;37.950;-122.338;2022-07-01T09:54:48;101446.16;;;11.85;82.63
70009;BME280;59542;37.950;-122.338;2022-07-01T09:57:16;101435.22;;;11.87;82.62
70009;BME280;59542;37.950;-122.338;2022-07-01T09:59:43;101451.53;;;11.92;82.24
70009;BME280;59542;37.950;-122.338;2022-07-01T10:02:10;101439.59;;;11.95;82.10
70009;BME280;59542;37.950;-122.338;2022-07-01T10:04:42;101447.41;;;11.89;82.14
70009;BME280;59542;37.950;-122.338;2022-07-01T10:07:42;101444.34;;;11.99;82.11
70009;BME280;59542;37.950;-122.338;2022-07-01T10:10:27;101447.06;;;12.06;81.51
70009;BME280;59542;37.950;-122.338;2022-07-01T10:13:03;101443.13;;;12.02;81.32
70009;BME280;59542;37.950;-122.338;2022-07-01T10:15:31;101447.00;;;11.93;81.94
70009;BME280;59542;37.950;-122.338;2022-07-01T10:17:58;101442.28;;;11.95;82.24
70009;BME280;59542;37.950;-122.338;2022-07-01T10:20:26;101456.53;;;12.02;81.86
70009;BME280;59542;37.950;-122.338;2022-07-01T10:23:05;101452.81;;;12.03;82.01
70009;BME280;59542;37.950;-122.338;2022-07-01T10:25:43;101450.78;;;12.05;81.34
70009;BME280;59542;37.950;-122.338;2022-07-01T10:31:02;101452.63;;;12.04;81.26
70009;BME280;59542;37.950;-122.338;2022-07-01T10:33:31;101461.47;;;11.98;81.15
70009;BME280;59542;37.950;-122.338;2022-07-01T10:38:35;101459.00;;;11.97;80.58
70009;BME280;59542;37.950;-122.338;2022-07-01T10:41:24;101466.81;;;11.92;81.88
70009;BME280;59542;37.950;-122.338;2022-07-01T10:43:53;101458.75;;;11.85;82.26
70009;BME280;59542;37.950;-122.338;2022-07-01T10:46:45;101464.34;;;11.90;82.06
70009;BME280;59542;37.950;-122.338;2022-07-01T10:49:19;101468.28;;;11.94;82.35
70009;BME280;59542;37.950;-122.338;2022-07-01T10:51:53;101450.28;;;11.88;82.24
70009;BME280;59542;37.950;-122.338;2022-07-01T10:57:20;101449.56;;;12.14;81.73
70009;BME280;59542;37.950;-122.338;2022-07-01T10:59:53;101455.13;;;12.06;81.77
70009;BME280;59542;37.950;-122.338;2022-07-01T11:02:24;101459.03;;;12.10;81.94
70009;BME280;59542;37.950;-122.338;2022-07-01T11:07:26;101456.56;;;12.08;82.44
70009;BME280;59542;37.950;-122.338;2022-07-01T11:09:53;101444.63;;;12.11;82.55
70009;BME280;59542;37.950;-122.338;2022-07-01T11:12:21;101445.22;;;12.13;82.12
70009;BME280;59542;37.950;-122.338;2022-07-01T11:14:51;101447.53;;;12.16;81.02
70009;BME280;59542;37.950;-122.338;2022-07-01T11:17:19;101447.91;;;12.13;81.37
70009;BME280;59542;37.950;-122.338;2022-07-01T11:19:50;101445.81;;;12.02;81.56
70009;BME280;59542;37.950;-122.338;2022-07-01T11:22:22;101444.56;;;11.98;81.06
70009;BME280;59542;37.950;-122.338;2022-07-01T11:25:00;101448.50;;;12.08;80.95
70009;BME280;59542;37.950;-122.338;2022-07-01T11:27:28;101443.16;;;12.08;80.64
70009;BME280;59542;37.950;-122.338;2022-07-01T11:30:08;101440.88;;;12.05;80.53
70009;BME280;59542;37.950;-122.338;2022-07-01T11:32:46;101444.19;;;12.14;80.58
70009;BME280;59542;37.950;-122.338;2022-07-01T11:38:11;101444.81;;;12.09;81.27
70009;BME280;59542;37.950;-122.338;2022-07-01T11:40:58;101444.22;;;12.21;81.19
70009;BME280;59542;37.950;-122.338;2022-07-01T11:43:28;101437.03;;;12.28;80.50
70009;BME280;59542;37.950;-122.338;2022-07-01T11:45:57;101435.34;;;12.20;80.73
70009;BME280;59542;37.950;-122.338;2022-07-01T11:48:46;101438.22;;;12.19;80.55
70009;BME280;59542;37.950;-122.338;2022-07-01T11:51:20;101440.09;;;12.18;80.52
70009;BME280;59542;37.950;-122.338;2022-07-01T11:53:49;101437.78;;;12.08;81.09
70009;BME280;59542;37.950;-122.338;2022-07-01T11:56:17;101435.75;;;12.10;81.03
70009;BME280;59542;37.950;-122.338;2022-07-01T11:58:53;101442.13;;;12.09;81.33
70009;BME280;59542;37.950;-122.338;2022-07-01T12:03:49;101435.13;;;12.15;80.36
70009;BME280;59542;37.950;-122.338;2022-07-01T12:06:17;101440.25;;;12.03;81.05
70009;BME280;59542;37.950;-122.338;2022-07-01T12:08:46;101438.81;;;12.01;81.09
70009;BME280;59542;37.950;-122.338;2022-07-01T12:11:13;101435.75;;;12.10;80.69
70009;BME280;59542;37.950;-122.338;2022-07-01T12:13:41;101435.13;;;12.15;80.19
70009;BME280;59542;37.950;-122.338;2022-07-01T12:16:10;101440.91;;;12.12;79.97
70009;BME280;59542;37.950;-122.338;2022-07-01T12:18:37;101442.97;;;12.17;79.94
70009;BME280;59542;37.950;-122.338;2022-07-01T12:21:04;101442.97;;;12.17;80.09
70009;BME280;59542;37.950;-122.338;2022-07-01T12:23:31;101442.34;;;12.14;79.63
70009;BME280;59542;37.950;-122.338;2022-07-01T12:26:04;101439.03;;;12.06;80.27
70009;BME280;59542;37.950;-122.338;2022-07-01T12:28:38;101445.84;;;12.08;80.41
70009;BME280;59542;37.950;-122.338;2022-07-01T12:31:09;101449.13;;;12.04;80.27
70009;BME280;59542;37.950;-122.338;2022-07-01T12:33:47;101450.00;;;12.11;80.28
70009;BME280;59542;37.950;-122.338;2022-07-01T12:36:14;101452.47;;;12.12;80.03
70009;BME280;59542;37.950;-122.338;2022-07-01T12:38:42;101456.19;;;12.18;80.12
70009;BME280;59542;37.950;-122.338;2022-07-01T12:41:28;101463.19;;;12.12;80.26
70009;BME280;59542;37.950;-122.338;2022-07-01T12:43:54;101458.44;;;12.08;80.14